Time;durP1;ratioP1;P1;durP2;ratioP2;P2;SDS_P1;SDS_P2;PMS_P1;PMS_P2;Temp;Humidity;BMP_temperature;BMP_pressure;BME280_temperature;BME280_humidity;BME280_pressure;Samples;Min_cycle;Max_cycle;Signal;HPM_P1;HPM_P2
2023/03/06 00:00:44;;;;;;;7.65;4.45;;;5.90;99.90;;;;;;4163287;28;20371;-66
2023/03/06 00:02:45;;;;;;;8.80;4.80;;;5.90;99.90;;;;;;4156629;28;20525;-66
2023/03/06 00:04:46;;;;;;;7.47;4.53;;;5.90;99.90;;;;;;4140659;28;20034;-66
2023/03/06 00:06:46;;;;;;;8.35;4.50;;;5.90;99.90;;;;;;4138008;28;20571;-66
2023/03/06 00:08:47;;;;;;;8.57;4.72;;;5.90;99.90;;;;;;4160093;28;20025;-66
2023/03/06 00:10:47;;;;;;;6.65;4.35;;;5.90;99.90;;;;;;4142145;28;20438;-66
2023/03/06 00:12:51;;;;;;;6.05;4.55;;;5.90;99.90;;;;;;4139574;28;20038;-66
2023/03/06 00:14:52;;;;;;;6.28;4.65;;;5.90;99.90;;;;;;4161808;28;20118;-66
2023/03/06 00:16:54;;;;;;;7.25;5.00;;;5.80;99.90;;;;;;4156307;28;20508;-66
2023/03/06 00:18:55;;;;;;;9.32;5.18;;;5.80;99.90;;;;;;4157756;28;20128;-66
2023/03/06 00:20:56;;;;;;;6.82;4.47;;;5.70;99.90;;;;;;4140037;28;20038;-66
2023/03/06 00:22:56;;;;;;;7.22;4.38;;;5.70;99.90;;;;;;4140436;28;20038;-66
2023/03/06 00:24:57;;;;;;;8.10;4.13;;;5.70;99.90;;;;;;4156125;28;20478;-66
2023/03/06 00:26:57;;;;;;;6.68;4.10;;;5.70;99.90;;;;;;4156835;28;20498;-66
2023/03/06 00:28:58;;;;;;;5.65;4.20;;;5.70;99.90;;;;;;4175642;28;20497;-66
2023/03/06 00:30:59;;;;;;;6.90;4.35;;;5.70;99.90;;;;;;4154492;28;20057;-66
2023/03/06 00:33:00;;;;;;;5.50;3.78;;;5.70;99.90;;;;;;4122704;28;20070;-66
2023/03/06 00:35:01;;;;;;;7.78;3.97;;;5.60;99.90;;;;;;4143816;28;20552;-66
2023/03/06 00:37:01;;;;;;;6.53;3.63;;;5.60;99.90;;;;;;4159496;28;20038;-66
2023/03/06 00:39:02;;;;;;;6.72;4.40;;;5.60;99.90;;;;;;4141137;28;20112;-66
2023/03/06 00:41:08;;;;;;;5.00;3.83;;;5.60;99.90;;;;;;4156276;28;20124;-68
2023/03/06 00:43:08;;;;;;;4.88;3.70;;;5.60;99.90;;;;;;4156074;28;20052;-66
2023/03/06 00:45:10;;;;;;;6.88;3.92;;;5.60;99.90;;;;;;4156652;28;20109;-67
2023/03/06 00:47:11;;;;;;;6.88;4.07;;;5.70;99.90;;;;;;4157693;28;20490;-66
2023/03/06 00:49:11;;;;;;;6.28;3.67;;;5.70;99.90;;;;;;4160233;28;20096;-66
2023/03/06 00:51:12;;;;;;;5.22;3.88;;;5.70;99.90;;;;;;4156079;28;20040;-66
2023/03/06 00:53:12;;;;;;;7.88;4.50;;;5.70;99.90;;;;;;4154092;28;20104;-66
2023/03/06 00:55:13;;;;;;;6.05;4.18;;;5.70;99.90;;;;;;4155889;28;20490;-66
2023/03/06 00:57:14;;;;;;;5.50;3.88;;;5.70;99.90;;;;;;4154368;28;20100;-66
2023/03/06 00:59:14;;;;;;;7.10;4.28;;;5.70;99.90;;;;;;4160814;28;20077;-66
2023/03/06 01:01:15;;;;;;;5.32;3.80;;;5.70;99.90;;;;;;4174116;28;20082;-66
2023/03/06 01:03:16;;;;;;;5.63;3.85;;;5.70;99.90;;;;;;4163529;28;20036;-67
2023/03/06 01:05:16;;;;;;;7.47;4.40;;;5.80;99.90;;;;;;4160715;28;20041;-66
2023/03/06 01:07:17;;;;;;;7.07;5.00;;;5.70;99.90;;;;;;4160132;28;20029;-66
2023/03/06 01:09:17;;;;;;;7.88;4.63;;;5.80;99.90;;;;;;4160766;28;20029;-66
2023/03/06 01:11:18;;;;;;;10.43;5.35;;;5.70;99.90;;;;;;4138686;28;20112;-66
2023/03/06 01:13:19;;;;;;;8.15;5.55;;;5.80;99.90;;;;;;4157862;28;20033;-66
2023/03/06 01:15:20;;;;;;;7.43;5.50;;;5.70;99.90;;;;;;4157148;28;20033;-66
2023/03/06 01:17:21;;;;;;;7.63;5.40;;;5.70;99.90;;;;;;4160684;28;20523;-66
2023/03/06 01:19:22;;;;;;;8.25;6.45;;;5.80;99.90;;;;;;4166253;28;20041;-66
2023/03/06 01:21:22;;;;;;;11.38;7.28;;;5.70;99.90;;;;;;4159186;28;20038;-66
2023/03/06 01:23:23;;;;;;;10.38;7.05;;;5.70;99.90;;;;;;4140231;28;20085;-66
2023/03/06 01:25:24;;;;;;;10.98;7.05;;;5.80;99.90;;;;;;4158542;28;20120;-66
2023/03/06 01:27:25;;;;;;;11.38;7.63;;;5.70;99.90;;;;;;4162708;28;20033;-66
2023/03/06 01:29:25;;;;;;;11.60;7.63;;;5.80;99.90;;;;;;4160991;28;20035;-66
2023/03/06 01:31:26;;;;;;;10.85;7.85;;;5.70;99.90;;;;;;4139458;28;20030;-66
2023/03/06 01:33:27;;;;;;;10.90;7.55;;;5.70;99.90;;;;;;4139904;28;20069;-66
2023/03/06 01:35:27;;;;;;;10.75;7.60;;;5.70;99.90;;;;;;4156730;28;20061;-66
2023/03/06 01:37:28;;;;;;;12.27;8.57;;;5.80;99.90;;;;;;4145428;28;20025;-66
2023/03/06 01:39:30;;;;;;;14.05;8.40;;;5.80;99.90;;;;;;4164410;28;20065;-66
2023/03/06 01:41:31;;;;;;;13.93;9.40;;;5.80;99.90;;;;;;4138217;28;20034;-66
2023/03/06 01:43:37;;;;;;;12.63;9.13;;;5.80;99.90;;;;;;4159241;28;20021;-66
2023/03/06 01:45:37;;;;;;;15.02;9.65;;;5.80;99.90;;;;;;4161871;28;20482;-66
2023/03/06 01:47:38;;;;;;;13.40;9.48;;;5.80;99.90;;;;;;4160049;28;20040;-66
2023/03/06 01:49:40;;;;;;;15.60;9.27;;;5.80;99.90;;;;;;4166285;28;20033;-66
2023/03/06 01:51:43;;;;;;;18.65;9.60;;;5.80;99.90;;;;;;4156884;28;20562;-66
2023/03/06 01:53:46;;;;;;;15.10;10.13;;;5.80;99.90;;;;;;4154374;28;20041;-66
2023/03/06 01:55:46;;;;;;;14.05;9.27;;;5.70;99.90;;;;;;4156671;28;20041;-66
2023/03/06 01:57:52;;;;;;;15.90;10.80;;;5.70;99.90;;;;;;4162437;28;20043;-66
2023/03/06 01:59:59;;;;;;;18.58;12.35;;;5.70;99.90;;;;;;4163855;28;20571;-66
2023/03/06 02:02:01;;;;;;;21.83;13.68;;;5.60;99.90;;;;;;4158791;28;20044;-66
2023/03/06 02:04:01;;;;;;;18.23;12.70;;;5.50;99.90;;;;;;4176724;22;20037;-67
2023/03/06 02:06:02;;;;;;;18.92;12.82;;;5.40;99.90;;;;;;4187860;28;20115;-67
2023/03/06 02:08:05;;;;;;;16.02;11.50;;;5.40;99.90;;;;;;4183180;28;20057;-67
2023/03/06 02:10:05;;;;;;;;;;;5.40;99.90;;;;;;4192329;28;20525;-70
2023/03/06 02:12:13;;;;;;;20.55;12.65;;;5.40;99.90;;;;;;4194349;28;19916;-68
2023/03/06 02:14:15;;;;;;;15.82;11.05;;;5.30;99.90;;;;;;4190093;28;20059;-69
2023/03/06 02:16:18;;;;;;;18.70;10.82;;;5.30;99.90;;;;;;4189357;28;20064;-68
2023/03/06 02:18:19;;;;;;;18.05;11.68;;;5.20;99.90;;;;;;4184722;28;20039;-69
2023/03/06 02:20:49;;;;;;;16.60;10.98;;;5.20;99.90;;;;;;4188460;28;20029;-69
2023/03/06 02:23:07;;;;;;;17.75;11.65;;;5.20;99.90;;;;;;4193160;28;20119;-69
2023/03/06 02:25:41;;;;;;;16.77;10.82;;;5.20;99.90;;;;;;4185807;28;20052;-69
2023/03/06 02:27:41;;;;;;;17.70;10.73;;;5.20;99.90;;;;;;4188991;28;20401;-68
2023/03/06 02:29:42;;;;;;;17.17;11.15;;;5.10;99.90;;;;;;4193374;28;20056;-69
2023/03/06 02:31:43;;;;;;;22.08;12.00;;;5.10;99.90;;;;;;4194346;28;20490;-69
2023/03/06 02:33:43;;;;;;;18.67;12.95;;;5.10;99.90;;;;;;4194537;28;20037;-69
2023/03/06 02:35:56;;;;;;;20.77;12.82;;;5.10;99.90;;;;;;4191342;28;20036;-70
2023/03/06 02:38:01;;;;;;;;;;;5.10;99.90;;;;;;4193923;28;20052;-69
2023/03/06 02:40:08;;;;;;;19.13;11.63;;;5.10;99.90;;;;;;4194421;28;19909;-68
2023/03/06 02:42:08;;;;;;;22.52;14.45;;;5.10;99.90;;;;;;4193986;28;20072;-68
2023/03/06 02:44:09;;;;;;;25.67;14.85;;;5.00;99.90;;;;;;4194024;28;20044;-68
2023/03/06 02:46:10;;;;;;;22.98;13.43;;;5.00;99.90;;;;;;4186302;28;20106;-68
2023/03/06 02:48:14;;;;;;;21.50;13.27;;;5.00;99.90;;;;;;4180877;28;20036;-68
2023/03/06 02:50:15;;;;;;;21.15;13.80;;;5.00;99.90;;;;;;4190062;28;20035;-69
2023/03/06 02:52:15;;;;;;;20.80;13.18;;;5.00;99.90;;;;;;4191175;28;20084;-69
2023/03/06 02:54:19;;;;;;;22.80;14.68;;;5.00;99.90;;;;;;4189819;28;20037;-69
2023/03/06 02:56:19;;;;;;;18.70;12.52;;;5.00;99.90;;;;;;4185985;28;20486;-69
2023/03/06 02:58:20;;;;;;;22.63;13.60;;;4.90;99.90;;;;;;4191943;28;20072;-68
2023/03/06 03:00:21;;;;;;;21.75;14.02;;;5.00;99.90;;;;;;4189007;28;20439;-68
2023/03/06 03:02:21;;;;;;;22.70;13.77;;;5.00;99.90;;;;;;4187351;28;21183;-69
2023/03/06 03:04:22;;;;;;;25.48;14.52;;;4.90;99.90;;;;;;4192924;28;20053;-68
2023/03/06 03:06:23;;;;;;;23.60;14.10;;;4.90;99.90;;;;;;4189628;28;20474;-69
2023/03/06 03:08:23;;;;;;;20.17;13.07;;;4.90;99.90;;;;;;4190264;28;20043;-68
2023/03/06 03:10:24;;;;;;;21.42;13.98;;;4.90;99.90;;;;;;4193473;28;20036;-68
2023/03/06 03:12:27;;;;;;;20.08;12.98;;;4.90;99.90;;;;;;4194203;28;20111;-69
2023/03/06 03:14:28;;;;;;;22.60;13.63;;;4.80;99.90;;;;;;4193493;28;20028;-68
2023/03/06 03:16:28;;;;;;;20.17;13.07;;;4.80;99.90;;;;;;4187277;28;20395;-68
2023/03/06 03:18:29;;;;;;;21.52;13.52;;;4.90;99.90;;;;;;4190204;28;20386;-68
2023/03/06 03:20:29;;;;;;;24.27;15.05;;;4.80;99.90;;;;;;4191840;28;20040;-69
2023/03/06 03:22:30;;;;;;;24.55;15.00;;;4.90;99.90;;;;;;4192314;28;20394;-69
2023/03/06 03:24:30;;;;;;;22.63;14.20;;;4.90;99.90;;;;;;4191755;28;20547;-69
2023/03/06 03:26:31;;;;;;;24.67;16.02;;;4.90;99.90;;;;;;4189435;28;20040;-68
2023/03/06 03:28:31;;;;;;;24.88;14.75;;;4.90;99.90;;;;;;4190531;28;20046;-68
2023/03/06 03:30:32;;;;;;;22.05;14.73;;;4.90;99.90;;;;;;4191727;28;20274;-69
2023/03/06 03:32:33;;;;;;;23.17;14.38;;;4.90;99.90;;;;;;4194181;28;20438;-68
2023/03/06 03:34:33;;;;;;;25.77;16.23;;;4.90;99.90;;;;;;4193107;28;20028;-69
2023/03/06 03:36:34;;;;;;;25.40;16.13;;;4.90;99.90;;;;;;4188412;28;20163;-69
2023/03/06 03:38:34;;;;;;;25.65;15.88;;;4.90;99.90;;;;;;4184606;28;20032;-69
2023/03/06 03:40:37;;;;;;;24.48;15.48;;;4.90;99.90;;;;;;4191575;28;20115;-69
2023/03/06 03:42:37;;;;;;;25.67;15.57;;;4.90;99.90;;;;;;4182887;28;20473;-67
2023/03/06 03:44:38;;;;;;;22.35;14.40;;;4.90;99.90;;;;;;4193596;28;20037;-69
2023/03/06 03:46:39;;;;;;;26.98;15.35;;;4.90;99.90;;;;;;4187852;28;20593;-69
2023/03/06 03:48:39;;;;;;;26.55;15.30;;;4.90;99.90;;;;;;4183586;28;20028;-68
2023/03/06 03:50:40;;;;;;;22.15;14.18;;;4.90;99.90;;;;;;4192951;28;20032;-68
2023/03/06 03:52:40;;;;;;;23.15;14.77;;;5.00;99.90;;;;;;4193445;28;20068;-69
2023/03/06 03:54:41;;;;;;;25.40;16.15;;;5.00;99.90;;;;;;4193248;28;20108;-68
2023/03/06 03:56:43;;;;;;;24.25;15.13;;;5.00;99.90;;;;;;4184120;28;20040;-69
2023/03/06 03:58:43;;;;;;;22.65;14.93;;;4.90;99.90;;;;;;4191804;28;20075;-69
2023/03/06 04:00:44;;;;;;;21.77;14.73;;;4.90;99.90;;;;;;4191176;28;20367;-68
2023/03/06 04:02:45;;;;;;;26.23;15.23;;;4.90;99.90;;;;;;4181283;28;20033;-69
2023/03/06 04:04:46;;;;;;;21.63;14.40;;;4.90;99.90;;;;;;4189517;28;20044;-68
2023/03/06 04:06:47;;;;;;;22.73;15.20;;;4.90;99.90;;;;;;4182455;28;20040;-68
2023/03/06 04:08:48;;;;;;;25.02;16.42;;;4.90;99.90;;;;;;4191099;28;20115;-69
2023/03/06 04:10:50;;;;;;;25.27;15.30;;;4.90;99.90;;;;;;4192788;28;20051;-68
2023/03/06 04:12:50;;;;;;;21.67;14.82;;;4.80;99.90;;;;;;4193397;28;20089;-68
2023/03/06 04:14:51;;;;;;;22.15;14.27;;;4.90;99.90;;;;;;4192548;28;20029;-68
2023/03/06 04:16:51;;;;;;;21.67;14.10;;;4.90;99.90;;;;;;4189336;28;20116;-68
2023/03/06 04:18:52;;;;;;;22.55;14.38;;;4.90;99.90;;;;;;4189823;28;20052;-69
2023/03/06 04:20:52;;;;;;;22.90;15.13;;;4.90;99.90;;;;;;4192113;28;20048;-69
2023/03/06 04:22:53;;;;;;;20.08;13.85;;;4.90;99.90;;;;;;4191777;28;20069;-69
2023/03/06 04:24:54;;;;;;;19.83;13.82;;;4.80;99.90;;;;;;4192433;28;20142;-69
2023/03/06 04:26:54;;;;;;;24.05;13.98;;;4.80;99.90;;;;;;4181918;28;20386;-68
2023/03/06 04:28:55;;;;;;;20.42;13.15;;;4.80;99.90;;;;;;4192654;28;20383;-68
2023/03/06 04:30:55;;;;;;;22.13;14.30;;;4.80;99.90;;;;;;4192735;28;20440;-69
2023/03/06 04:32:57;;;;;;;22.10;13.60;;;4.90;99.90;;;;;;4184857;28;20064;-69
2023/03/06 04:34:57;;;;;;;18.48;12.10;;;4.80;99.90;;;;;;4190943;28;20036;-69
2023/03/06 04:36:58;;;;;;;22.02;14.18;;;4.90;99.90;;;;;;4185736;28;20587;-68
2023/03/06 04:38:59;;;;;;;25.42;14.57;;;4.90;99.90;;;;;;4191671;28;20438;-69
2023/03/06 04:40:59;;;;;;;20.83;13.43;;;4.80;99.90;;;;;;4191537;28;20048;-69
2023/03/06 04:43:01;;;;;;;19.92;13.70;;;4.70;99.90;;;;;;4189773;28;20666;-69
2023/03/06 04:45:01;;;;;;;17.52;11.88;;;4.70;99.90;;;;;;4191999;28;20040;-69
2023/03/06 04:47:02;;;;;;;21.90;13.98;;;4.80;99.90;;;;;;4185184;28;20029;-68
2023/03/06 04:49:03;;;;;;;19.60;14.07;;;4.80;99.90;;;;;;4189621;28;20036;-69
2023/03/06 04:51:03;;;;;;;22.30;13.65;;;4.80;99.90;;;;;;4191412;28;20066;-69
2023/03/06 04:53:04;;;;;;;18.17;13.10;;;4.70;99.90;;;;;;4192860;28;20040;-68
2023/03/06 04:55:07;;;;;;;18.75;12.60;;;4.70;99.90;;;;;;4191725;28;20024;-69
2023/03/06 04:57:09;;;;;;;20.35;13.32;;;4.70;99.90;;;;;;4185679;28;20411;-68
2023/03/06 04:59:09;;;;;;;20.80;13.10;;;4.70;99.90;;;;;;4187573;28;20407;-69
2023/03/06 05:01:10;;;;;;;19.42;13.63;;;4.70;99.90;;;;;;4190299;28;20083;-68
2023/03/06 05:03:12;;;;;;;19.65;12.55;;;4.60;99.90;;;;;;4189598;28;20041;-68
2023/03/06 05:05:14;;;;;;;20.25;13.05;;;4.70;99.90;;;;;;4186808;28;20051;-68
2023/03/06 05:07:14;;;;;;;17.90;11.85;;;4.70;99.90;;;;;;4188860;28;20388;-68
2023/03/06 05:09:15;;;;;;;19.00;11.73;;;4.70;99.90;;;;;;4189783;28;20040;-68
2023/03/06 05:11:16;;;;;;;17.67;11.45;;;4.70;99.90;;;;;;4190866;28;20159;-68
2023/03/06 05:13:16;;;;;;;20.48;12.80;;;4.70;99.90;;;;;;4192696;28;20036;-69
2023/03/06 05:15:17;;;;;;;17.77;11.13;;;4.70;99.90;;;;;;4190634;28;20060;-69
2023/03/06 05:17:18;;;;;;;24.30;13.57;;;4.70;99.90;;;;;;4187386;28;20048;-67
2023/03/06 05:19:18;;;;;;;17.95;11.60;;;4.70;99.90;;;;;;4181917;28;20491;-69
2023/03/06 05:21:19;;;;;;;18.42;11.18;;;4.70;99.90;;;;;;4195173;28;20177;-68
2023/03/06 05:23:19;;;;;;;23.30;13.20;;;4.70;99.90;;;;;;4196623;28;20586;-69
2023/03/06 05:25:20;;;;;;;20.83;13.30;;;4.70;99.90;;;;;;4191788;28;20055;-68
2023/03/06 05:27:21;;;;;;;19.77;12.88;;;4.70;99.90;;;;;;4191800;28;20060;-68
2023/03/06 05:29:21;;;;;;;19.45;12.63;;;4.70;99.90;;;;;;4194081;28;20029;-69
2023/03/06 05:31:22;;;;;;;18.35;11.65;;;4.70;99.90;;;;;;4192937;28;20105;-68
2023/03/06 05:33:22;;;;;;;22.30;13.30;;;4.60;99.90;;;;;;4193733;28;20040;-68
2023/03/06 05:35:23;;;;;;;20.38;13.15;;;4.70;99.90;;;;;;4190983;28;20062;-68
2023/03/06 05:37:24;;;;;;;20.10;12.57;;;4.70;99.90;;;;;;4182743;28;20036;-68
2023/03/06 05:39:25;;;;;;;24.55;14.48;;;4.70;99.90;;;;;;4179808;28;20546;-68
2023/03/06 05:41:26;;;;;;;23.45;14.82;;;4.60;99.90;;;;;;4195814;28;20041;-68
2023/03/06 05:43:27;;;;;;;22.25;13.88;;;4.60;99.90;;;;;;4195228;28;20799;-69
2023/03/06 05:45:27;;;;;;;21.63;13.45;;;4.50;99.90;;;;;;4183780;28;20463;-68
2023/03/06 05:47:28;;;;;;;22.30;14.20;;;4.60;99.90;;;;;;4190073;28;20037;-68
2023/03/06 05:49:34;;;;;;;27.35;15.10;;;4.60;99.90;;;;;;4194034;28;20040;-68
2023/03/06 05:51:34;;;;;;;24.27;14.02;;;4.60;99.90;;;;;;4191961;28;20442;-69
2023/03/06 05:53:35;;;;;;;23.45;14.10;;;4.60;99.90;;;;;;4191367;28;20028;-68
2023/03/06 05:55:35;;;;;;;24.80;14.55;;;4.60;99.90;;;;;;4188719;28;20576;-68
2023/03/06 05:57:36;;;;;;;27.65;15.63;;;4.70;99.90;;;;;;4189231;28;20045;-68
2023/03/06 05:59:36;;;;;;;26.50;16.10;;;4.60;99.90;;;;;;4192910;28;20624;-68
2023/03/06 06:01:37;;;;;;;27.23;16.00;;;4.60;99.90;;;;;;4195195;28;20071;-68
2023/03/06 06:03:38;;;;;;;28.13;17.65;;;4.50;99.90;;;;;;4194161;28;20480;-69
2023/03/06 06:05:39;;;;;;;26.52;16.45;;;4.60;99.90;;;;;;4191005;28;20712;-67
2023/03/06 06:07:40;;;;;;;31.63;18.05;;;4.60;99.90;;;;;;4191015;28;20032;-69
2023/03/06 06:09:44;;;;;;;31.38;17.52;;;4.50;99.90;;;;;;4191728;28;20038;-68
2023/03/06 06:11:44;;;;;;;28.42;16.27;;;4.60;99.90;;;;;;4190021;28;20086;-69
2023/03/06 06:13:47;;;;;;;34.10;19.55;;;4.60;99.90;;;;;;4191779;28;20036;-69
2023/03/06 06:15:48;;;;;;;32.65;18.20;;;4.50;99.90;;;;;;4187522;28;20103;-69
2023/03/06 06:17:49;;;;;;;29.27;17.27;;;4.50;99.90;;;;;;4186533;28;20379;-68
2023/03/06 06:19:50;;;;;;;29.98;16.70;;;4.50;99.90;;;;;;4189084;28;20028;-68
2023/03/06 06:21:52;;;;;;;27.30;17.17;;;4.60;99.90;;;;;;4189782;28;20536;-69
2023/03/06 06:23:53;;;;;;;29.27;17.23;;;4.60;99.90;;;;;;4185855;28;21424;-69
2023/03/06 06:25:54;;;;;;;30.65;17.42;;;4.60;99.90;;;;;;4187574;28;21390;-69
2023/03/06 06:27:55;;;;;;;29.95;17.40;;;4.70;99.90;;;;;;4187152;28;20033;-68
2023/03/06 06:29:56;;;;;;;27.13;16.48;;;4.60;99.90;;;;;;4190059;28;20474;-69
2023/03/06 06:31:57;;;;;;;30.25;16.90;;;4.60;99.90;;;;;;4180963;28;20047;-69
2023/03/06 06:33:57;;;;;;;33.78;19.35;;;4.60;99.90;;;;;;4189988;28;20112;-68
2023/03/06 06:35:58;;;;;;;30.65;17.60;;;4.60;99.90;;;;;;4188848;28;20475;-69
2023/03/06 06:37:58;;;;;;;35.55;18.98;;;4.60;99.90;;;;;;4186967;28;20028;-69
2023/03/06 06:39:59;;;;;;;30.70;17.25;;;4.60;99.90;;;;;;4190510;28;20037;-69
2023/03/06 06:42:01;;;;;;;33.00;17.90;;;4.60;99.90;;;;;;4189060;28;20128;-69
2023/03/06 06:44:06;;;;;;;34.30;18.33;;;4.60;99.90;;;;;;4187259;28;20029;-69
2023/03/06 06:46:07;;;;;;;27.17;16.42;;;4.60;99.90;;;;;;4179316;28;20174;-68
2023/03/06 06:48:08;;;;;;;26.02;15.65;;;4.60;99.90;;;;;;4185427;28;20068;-69
2023/03/06 06:50:12;;;;;;;29.88;16.08;;;4.60;99.90;;;;;;4187112;28;21985;-69
2023/03/06 06:52:13;;;;;;;26.80;15.57;;;4.70;99.90;;;;;;4189733;28;20044;-69
2023/03/06 06:54:14;;;;;;;26.48;15.18;;;4.70;99.90;;;;;;4190134;28;20163;-69
2023/03/06 06:56:14;;;;;;;26.10;15.38;;;4.70;99.90;;;;;;4187674;28;20089;-69
2023/03/06 06:58:15;;;;;;;22.73;13.57;;;4.70;99.90;;;;;;4188385;28;20441;-68
2023/03/06 07:00:17;;;;;;;28.40;14.88;;;4.70;99.90;;;;;;4188556;28;20501;-69
2023/03/06 07:02:17;;;;;;;29.77;16.88;;;4.80;99.90;;;;;;4190238;28;20049;-69
2023/03/06 07:04:18;;;;;;;29.70;16.73;;;4.80;99.90;;;;;;4189075;28;20132;-69
2023/03/06 07:06:19;;;;;;;31.38;16.52;;;4.80;99.90;;;;;;4186297;28;20407;-69
2023/03/06 07:08:20;;;;;;;28.92;16.17;;;4.80;99.90;;;;;;4185972;28;20045;-69
2023/03/06 07:10:21;;;;;;;31.45;17.85;;;4.80;99.90;;;;;;4189887;28;20043;-69
2023/03/06 07:12:22;;;;;;;26.08;15.55;;;4.80;99.90;;;;;;4185668;28;20090;-68
2023/03/06 07:14:22;;;;;;;32.50;16.85;;;4.80;99.90;;;;;;4179596;28;20033;-69
2023/03/06 07:16:23;;;;;;;27.45;15.63;;;4.80;99.90;;;;;;4184665;28;20041;-69
2023/03/06 07:18:23;;;;;;;27.75;16.42;;;4.70;99.90;;;;;;4186209;28;20093;-69
2023/03/06 07:20:24;;;;;;;31.65;17.45;;;4.70;99.90;;;;;;4188306;28;20037;-69
2023/03/06 07:22:25;;;;;;;28.52;16.38;;;4.80;99.90;;;;;;4185030;28;20041;-69
2023/03/06 07:24:26;;;;;;;27.77;15.70;;;4.70;99.90;;;;;;4188044;28;20048;-69
2023/03/06 07:26:27;;;;;;;36.45;18.25;;;4.70;99.90;;;;;;4183857;28;20033;-69
2023/03/06 07:28:28;;;;;;;29.40;17.20;;;4.70;99.90;;;;;;4186061;28;20060;-69
2023/03/06 07:30:29;;;;;;;29.75;17.30;;;4.70;99.90;;;;;;4183412;28;20769;-69
2023/03/06 07:32:29;;;;;;;27.33;16.95;;;4.70;99.90;;;;;;4186924;28;20049;-69
2023/03/06 07:34:30;;;;;;;27.05;15.35;;;4.70;99.90;;;;;;4185807;28;20025;-68
2023/03/06 07:36:31;;;;;;;28.27;16.92;;;4.80;99.90;;;;;;4186737;28;20028;-69
2023/03/06 07:38:31;;;;;;;30.10;17.23;;;4.70;99.90;;;;;;4186095;28;20036;-69
2023/03/06 07:40:32;;;;;;;26.85;15.50;;;4.80;99.90;;;;;;4188803;28;20037;-69
2023/03/06 07:42:32;;;;;;;27.95;15.55;;;4.80;99.90;;;;;;4186388;28;20044;-69
2023/03/06 07:44:37;;;;;;;28.67;15.43;;;4.80;99.90;;;;;;4189922;28;20438;-69
2023/03/06 07:46:37;;;;;;;30.63;17.02;;;4.90;99.90;;;;;;4184811;28;20033;-69
2023/03/06 07:48:39;;;;;;;30.38;17.70;;;4.90;99.90;;;;;;4188331;28;20051;-69
2023/03/06 07:50:40;;;;;;;31.13;16.95;;;4.90;99.90;;;;;;4189191;28;20032;-68
2023/03/06 07:52:41;;;;;;;30.40;17.30;;;4.90;99.90;;;;;;4181082;28;20161;-68
2023/03/06 07:54:41;;;;;;;32.33;18.10;;;4.90;99.90;;;;;;4186863;28;20118;-69
2023/03/06 07:56:42;;;;;;;33.72;17.73;;;4.90;99.90;;;;;;4186771;28;20085;-69
2023/03/06 07:58:44;;;;;;;35.17;18.48;;;4.90;99.90;;;;;;4156613;28;20549;-71
2023/03/06 08:00:45;;;;;;;36.88;19.05;;;4.90;99.90;;;;;;4184361;28;20395;-69
2023/03/06 08:02:46;;;;;;;32.70;19.20;;;4.90;99.90;;;;;;4188014;28;20063;-69
2023/03/06 08:04:53;;;;;;;33.25;19.50;;;4.90;99.90;;;;;;4184050;28;20127;-69
2023/03/06 08:06:58;;;;;;;33.67;18.98;;;4.90;99.90;;;;;;4186547;28;20489;-69
2023/03/06 08:08:58;;;;;;;36.47;20.98;;;4.90;99.90;;;;;;4159062;28;21681;-68
2023/03/06 08:10:59;;;;;;;34.13;19.77;;;4.90;99.90;;;;;;4188868;28;20048;-68
2023/03/06 08:13:00;;;;;;;36.20;19.77;;;5.00;99.90;;;;;;4188230;28;20040;-69
2023/03/06 08:15:00;;;;;;;34.25;19.40;;;4.90;99.90;;;;;;4188730;28;20485;-69
2023/03/06 08:17:01;;;;;;;31.63;18.92;;;4.90;99.90;;;;;;4185956;28;20132;-69
2023/03/06 08:19:02;;;;;;;31.70;18.13;;;5.00;99.90;;;;;;4186112;28;20093;-68
2023/03/06 08:21:11;;;;;;;31.85;18.58;;;5.00;99.90;;;;;;4187713;28;20039;-69
2023/03/06 08:23:12;;;;;;;35.72;20.58;;;5.10;99.90;;;;;;4185966;28;20110;-69
2023/03/06 08:25:13;;;;;;;36.22;21.30;;;5.10;99.90;;;;;;4187915;28;20491;-69
2023/03/06 08:27:13;;;;;;;40.00;22.00;;;5.10;99.90;;;;;;4188850;28;20052;-69
2023/03/06 08:29:14;;;;;;;33.75;20.65;;;5.00;99.90;;;;;;4186851;28;20064;-69
2023/03/06 08:31:36;;;;;;;30.92;19.48;;;5.00;99.90;;;;;;4185413;28;20127;-69
2023/03/06 08:33:38;;;;;;;37.05;19.70;;;5.10;99.90;;;;;;4186884;28;20071;-70
2023/03/06 08:35:39;;;;;;;35.92;21.35;;;5.10;99.90;;;;;;4186422;28;20414;-70
2023/03/06 08:37:39;;;;;;;36.10;19.98;;;5.00;99.90;;;;;;4186620;28;20056;-70
2023/03/06 08:39:40;;;;;;;34.88;19.95;;;5.00;99.90;;;;;;4184844;28;20082;-69
2023/03/06 08:41:41;;;;;;;32.90;19.05;;;5.10;99.90;;;;;;4188370;28;20049;-70
2023/03/06 08:43:42;;;;;;;37.00;20.42;;;5.00;99.90;;;;;;4189426;28;20041;-71
2023/03/06 08:45:42;;;;;;;32.47;18.90;;;4.90;99.90;;;;;;4186404;28;20093;-73
2023/03/06 08:47:43;;;;;;;31.33;18.75;;;4.80;99.90;;;;;;4190373;28;20037;-73
2023/03/06 08:49:43;;;;;;;35.70;19.10;;;4.80;99.90;;;;;;4185356;28;20139;-72
2023/03/06 08:51:44;;;;;;;30.35;18.30;;;4.70;99.90;;;;;;4185725;28;20052;-72
2023/03/06 08:53:45;;;;;;;32.10;18.73;;;4.70;99.90;;;;;;4187756;28;20048;-72
2023/03/06 08:55:45;;;;;;;33.75;19.10;;;4.70;99.90;;;;;;4186630;28;20063;-72
2023/03/06 08:57:46;;;;;;;29.30;17.33;;;4.80;99.90;;;;;;4187616;28;20132;-72
2023/03/06 08:59:47;;;;;;;32.33;18.45;;;4.80;99.90;;;;;;4182371;28;20090;-72
2023/03/06 09:01:47;;;;;;;30.83;18.23;;;4.80;99.90;;;;;;4184140;28;20056;-71
2023/03/06 09:03:49;;;;;;;32.75;19.42;;;4.80;99.90;;;;;;4185020;28;20068;-71
2023/03/06 09:05:50;;;;;;;36.07;20.50;;;4.90;99.90;;;;;;4183771;28;20028;-71
2023/03/06 09:07:51;;;;;;;30.63;18.60;;;4.90;99.90;;;;;;4187312;28;20036;-71
2023/03/06 09:09:56;;;;;;;32.05;18.88;;;5.00;99.90;;;;;;4187294;28;20116;-72
2023/03/06 09:11:56;;;;;;;29.70;17.98;;;5.00;99.90;;;;;;4186794;28;20437;-71
2023/03/06 09:13:57;;;;;;;37.80;21.00;;;5.00;99.90;;;;;;4187364;28;20040;-71
2023/03/06 09:15:58;;;;;;;35.85;20.50;;;5.00;99.90;;;;;;4185585;28;20036;-71
2023/03/06 09:17:58;;;;;;;30.50;18.48;;;5.00;99.90;;;;;;4188367;28;20045;-71
2023/03/06 09:19:59;;;;;;;36.35;20.65;;;5.00;99.90;;;;;;4184528;28;20043;-71
2023/03/06 09:21:59;;;;;;;34.00;20.55;;;5.00;99.90;;;;;;4185614;28;26369;-71
2023/03/06 09:24:00;;;;;;;37.78;21.73;;;5.00;99.90;;;;;;4185566;28;20048;-71
2023/03/06 09:26:01;;;;;;;29.88;17.85;;;5.00;99.90;;;;;;4184216;28;20037;-71
2023/03/06 09:28:01;;;;;;;31.23;17.80;;;5.10;99.90;;;;;;4185864;28;20040;-71
2023/03/06 09:30:03;;;;;;;37.05;21.05;;;5.10;99.90;;;;;;4186174;28;20037;-72
2023/03/06 09:32:04;;;;;;;35.28;19.55;;;5.20;99.90;;;;;;4182533;28;20475;-71
2023/03/06 09:34:05;;;;;;;38.15;21.77;;;5.20;99.90;;;;;;4188365;28;20033;-72
2023/03/06 09:36:14;;;;;;;36.85;20.50;;;5.20;99.90;;;;;;4184365;28;20055;-71
2023/03/06 09:38:16;;;;;;;38.05;20.77;;;5.20;99.90;;;;;;4186977;28;20045;-71
2023/03/06 09:40:37;;;;;;;34.43;20.37;;;5.20;99.90;;;;;;4187430;28;20467;-70
2023/03/06 09:42:38;;;;;;;37.92;20.08;;;5.20;99.90;;;;;;4187578;28;20499;-71
2023/03/06 09:44:40;;;;;;;43.85;20.77;;;5.20;99.90;;;;;;4182280;28;20108;-71
2023/03/06 09:47:01;;;;;;;35.42;20.55;;;5.30;99.90;;;;;;4184072;28;20140;-71
2023/03/06 09:49:21;;;;;;;36.35;20.73;;;5.30;99.90;;;;;;4188665;28;20048;-71
2023/03/06 09:51:33;;;;;;;34.80;18.95;;;5.30;99.90;;;;;;4185892;28;20491;-71
2023/03/06 09:53:48;;;;;;;33.78;19.65;;;5.30;99.90;;;;;;4189514;28;20129;-71
2023/03/06 09:55:58;;;;;;;36.45;20.75;;;5.30;99.90;;;;;;4184948;28;20041;-71
2023/03/06 09:58:04;;;;;;;33.38;18.60;;;5.20;99.90;;;;;;4187101;28;20036;-71
2023/03/06 10:00:28;;;;;;;33.58;19.58;;;5.20;99.90;;;;;;4186046;28;20065;-71
2023/03/06 10:02:40;;;;;;;28.63;17.58;;;5.20;99.90;;;;;;4170456;28;20059;-71
2023/03/06 10:04:49;;;;;;;32.85;17.98;;;5.30;99.90;;;;;;4190601;28;20406;-71
2023/03/06 10:06:55;;;;;;;31.98;18.20;;;5.30;99.90;;;;;;4186690;28;20123;-71
2023/03/06 10:09:14;;;;;;;30.95;17.38;;;5.30;99.90;;;;;;4192293;28;20064;-71
2023/03/06 10:11:23;;;;;;;30.60;17.90;;;5.40;99.90;;;;;;4186913;28;20463;-71
2023/03/06 10:13:28;;;;;;;26.75;16.38;;;5.40;99.90;;;;;;4192246;28;20040;-71
2023/03/06 10:15:34;;;;;;;28.15;16.20;;;5.50;99.90;;;;;;4187528;28;20447;-71
2023/03/06 10:17:37;;;;;;;29.58;15.85;;;5.50;99.90;;;;;;4190687;28;20403;-71
2023/03/06 10:19:38;;;;;;;25.48;15.93;;;5.60;99.90;;;;;;4191114;28;20061;-71
2023/03/06 10:21:48;;;;;;;26.08;14.90;;;5.60;99.90;;;;;;4190510;28;20098;-71
2023/03/06 10:23:53;;;;;;;22.05;12.77;;;5.60;99.90;;;;;;4191268;28;20032;-71
2023/03/06 10:26:05;;;;;;;20.55;12.32;;;5.60;99.90;;;;;;4188683;28;20385;-70
2023/03/06 10:28:42;;;;;;;20.10;11.65;;;5.70;99.90;;;;;;4188610;28;20041;-70
2023/03/06 10:30:58;;;;;;;22.70;12.77;;;5.60;99.90;;;;;;4169872;28;20039;-70